Time;durP1;ratioP1;P1;durP2;ratioP2;P2;SDS_P1;SDS_P2;PMS_P1;PMS_P2;Temp;Humidity;BMP_temperature;BMP_pressure;BME280_temperature;BME280_humidity;BME280_pressure;Samples;Min_cycle;Max_cycle;Signal;HPM_P1;HPM_P2
2022/04/23 00:01:17;;;;;;;3.90;3.40;;;;;;;;;;5071941;28;20104;-48
2022/04/23 00:03:43;;;;;;;3.80;3.17;;;;;;;;;;5070394;28;20017;-48
2022/04/23 00:06:09;;;;;;;3.80;3.25;;;;;;;;;;5071442;28;20393;-49
2022/04/23 00:08:35;;;;;;;2.72;2.47;;;;;;;;;;5071492;28;20028;-50
2022/04/23 00:11:01;;;;;;;3.13;2.80;;;;;;;;;;5071099;28;20518;-47
2022/04/23 00:13:27;;;;;;;4.65;3.13;;;;;;;;;;5071080;28;20016;-48
2022/04/23 00:15:53;;;;;;;3.20;2.78;;;;;;;;;;5070902;28;20470;-49
2022/04/23 00:18:19;;;;;;;3.83;2.95;;;;;;;;;;5071525;28;20028;-48
2022/04/23 00:20:48;;;;;;;2.90;2.60;;;;;;;;;;5070627;28;20489;-48
2022/04/23 00:23:15;;;;;;;3.60;2.90;;;;;;;;;;5071203;28;20043;-47
2022/04/23 00:25:44;;;;;;;4.07;3.20;;;;;;;;;;5071105;28;20500;-54
2022/04/23 00:28:10;;;;;;;3.65;3.13;;;;;;;;;;5068953;28;20040;-48
2022/04/23 00:30:36;;;;;;;3.85;2.90;;;;;;;;;;5071472;28;20087;-48
2022/04/23 00:33:02;;;;;;;3.90;2.97;;;;;;;;;;5070346;28;20025;-48
2022/04/23 00:35:28;;;;;;;4.53;3.25;;;;;;;;;;5071214;28;20055;-48
2022/04/23 00:37:55;;;;;;;3.33;2.88;;;;;;;;;;5070570;28;20474;-48
2022/04/23 00:40:24;;;;;;;4.78;2.78;;;;;;;;;;5071385;28;20504;-48
2022/04/23 00:42:58;;;;;;;3.15;2.78;;;;;;;;;;5070035;28;20366;-50
2022/04/23 00:45:24;;;;;;;4.90;3.17;;;;;;;;;;5071499;28;20032;-48
2022/04/23 00:47:50;;;;;;;6.10;3.15;;;;;;;;;;5070590;28;20039;-50
2022/04/23 00:50:21;;;;;;;3.67;3.28;;;;;;;;;;5071222;28;20036;-48
2022/04/23 00:52:50;;;;;;;3.95;2.90;;;;;;;;;;5070251;28;20429;-48
2022/04/23 00:55:16;;;;;;;3.38;2.95;;;;;;;;;;5071222;28;20051;-49
2022/04/23 00:57:42;;;;;;;3.55;3.20;;;;;;;;;;5070632;28;20029;-53
2022/04/23 01:00:09;;;;;;;3.63;2.83;;;;;;;;;;5073828;28;20032;-48
2022/04/23 01:02:39;;;;;;;3.38;2.97;;;;;;;;;;5075129;28;20102;-48
2022/04/23 01:05:09;;;;;;;3.80;2.83;;;;;;;;;;5073841;28;20070;-51
2022/04/23 01:07:38;;;;;;;2.88;2.53;;;;;;;;;;5074745;28;20067;-49
2022/04/23 01:10:05;;;;;;;3.60;2.70;;;;;;;;;;5073709;28;20032;-48
2022/04/23 01:12:31;;;;;;;3.22;2.78;;;;;;;;;;5074905;28;20027;-48
2022/04/23 01:14:57;;;;;;;3.53;2.80;;;;;;;;;;5073596;28;20108;-49
2022/04/23 01:17:23;;;;;;;4.05;3.00;;;;;;;;;;5072692;28;20111;-48
2022/04/23 01:19:49;;;;;;;3.95;2.65;;;;;;;;;;5071407;28;20024;-49
2022/04/23 01:22:16;;;;;;;3.45;2.80;;;;;;;;;;5072199;28;20028;-48
2022/04/23 01:24:43;;;;;;;3.28;2.85;;;;;;;;;;5070470;28;20032;-55
2022/04/23 01:27:10;;;;;;;2.97;2.60;;;;;;;;;;5071493;28;20127;-48
2022/04/23 01:29:37;;;;;;;2.67;2.47;;;;;;;;;;5071814;28;20032;-48
2022/04/23 01:32:06;;;;;;;2.90;2.60;;;;;;;;;;5071428;28;20118;-48
2022/04/23 01:34:32;;;;;;;2.55;2.33;;;;;;;;;;5069622;28;20452;-52
2022/04/23 01:36:59;;;;;;;4.15;2.67;;;;;;;;;;5070706;28;20386;-50
2022/04/23 01:39:25;;;;;;;4.55;2.67;;;;;;;;;;5071693;28;20033;-49
2022/04/23 01:41:51;;;;;;;3.25;2.80;;;;;;;;;;5071303;28;20029;-51
2022/04/23 01:44:17;;;;;;;2.95;2.65;;;;;;;;;;5072166;28;20141;-51
2022/04/23 01:46:43;;;;;;;2.92;2.58;;;;;;;;;;5071715;28;20036;-54
2022/04/23 01:49:09;;;;;;;2.50;2.30;;;;;;;;;;5071699;28;20025;-53
2022/04/23 01:51:35;;;;;;;3.47;2.53;;;;;;;;;;5071902;28;20024;-51
2022/04/23 01:54:01;;;;;;;3.53;2.40;;;;;;;;;;5071288;28;20088;-50
2022/04/23 01:56:27;;;;;;;3.13;2.78;;;;;;;;;;5071950;28;20821;-49
2022/04/23 01:58:54;;;;;;;3.13;2.60;;;;;;;;;;5071137;28;20024;-50
2022/04/23 02:01:20;;;;;;;2.90;2.60;;;;;;;;;;5071826;28;20464;-50
2022/04/23 02:03:46;;;;;;;3.00;2.28;;;;;;;;;;5069701;28;20536;-50
2022/04/23 02:06:13;;;;;;;3.38;2.58;;;;;;;;;;5071525;28;20096;-51
2022/04/23 02:08:39;;;;;;;2.67;2.10;;;;;;;;;;5071862;28;20066;-50
2022/04/23 02:11:06;;;;;;;3.00;2.58;;;;;;;;;;5068827;28;20150;-52
2022/04/23 02:13:34;;;;;;;3.28;2.83;;;;;;;;;;5071434;28;20025;-50
2022/04/23 02:16:03;;;;;;;3.28;2.80;;;;;;;;;;5070692;28;20779;-50
2022/04/23 02:18:30;;;;;;;2.83;2.03;;;;;;;;;;5068571;28;20043;-49
2022/04/23 02:20:56;;;;;;;4.53;2.78;;;;;;;;;;5070443;28;20017;-49
2022/04/23 02:23:22;;;;;;;3.22;2.80;;;;;;;;;;5070969;28;20075;-51
2022/04/23 02:25:48;;;;;;;3.40;2.85;;;;;;;;;;5070542;28;20028;-48
2022/04/23 02:28:14;;;;;;;2.53;2.22;;;;;;;;;;5070483;28;20072;-48
2022/04/23 02:30:40;;;;;;;3.83;2.70;;;;;;;;;;5070906;28;20441;-48
2022/04/23 02:33:06;;;;;;;2.65;1.98;;;;;;;;;;5070310;28;20104;-48
2022/04/23 02:35:35;;;;;;;3.20;2.90;;;;;;;;;;5070440;28;20035;-49
2022/04/23 02:38:01;;;;;;;3.38;2.60;;;;;;;;;;5070368;28;20078;-50
2022/04/23 02:40:31;;;;;;;2.90;2.60;;;;;;;;;;5070632;28;20124;-50
2022/04/23 02:42:57;;;;;;;3.05;2.40;;;;;;;;;;5070369;28;20014;-48
2022/04/23 02:45:25;;;;;;;2.30;2.08;;;;;;;;;;5070695;28;20455;-49
2022/04/23 02:47:55;;;;;;;3.10;2.50;;;;;;;;;;5070011;28;20051;-50
2022/04/23 02:50:28;;;;;;;3.38;2.60;;;;;;;;;;5070545;28;20036;-48
2022/04/23 02:52:55;;;;;;;2.58;2.20;;;;;;;;;;5067787;28;20143;-49
2022/04/23 02:55:22;;;;;;;2.67;2.40;;;;;;;;;;5070659;28;20033;-50
2022/04/23 02:57:48;;;;;;;2.95;2.42;;;;;;;;;;5069918;28;20453;-48
2022/04/23 03:00:15;;;;;;;2.63;2.05;;;;;;;;;;5070404;28;20032;-47
2022/04/23 03:02:42;;;;;;;2.83;2.28;;;;;;;;;;5070323;28;20057;-54
2022/04/23 03:05:11;;;;;;;2.38;2.17;;;;;;;;;;5069764;28;20097;-49
2022/04/23 03:07:39;;;;;;;3.08;2.30;;;;;;;;;;5070239;28;20440;-53
2022/04/23 03:10:06;;;;;;;3.15;2.40;;;;;;;;;;5069223;28;20528;-49
2022/04/23 03:12:32;;;;;;;2.95;1.98;;;;;;;;;;5069415;28;20032;-52
2022/04/23 03:14:58;;;;;;;3.33;2.40;;;;;;;;;;5069297;28;20044;-48
2022/04/23 03:17:26;;;;;;;2.88;2.30;;;;;;;;;;5070146;28;20385;-50
2022/04/23 03:19:53;;;;;;;2.53;2.20;;;;;;;;;;5069311;28;20055;-52
2022/04/23 03:22:21;;;;;;;2.53;2.28;;;;;;;;;;5069880;28;20032;-48
2022/04/23 03:24:47;;;;;;;3.15;2.45;;;;;;;;;;5068799;28;20033;-48
2022/04/23 03:27:13;;;;;;;3.00;2.00;;;;;;;;;;5070066;28;20041;-49
2022/04/23 03:29:39;;;;;;;2.83;2.10;;;;;;;;;;5069330;28;20366;-50
2022/04/23 03:32:06;;;;;;;2.38;1.90;;;;;;;;;;5068868;28;20768;-48
2022/04/23 03:34:32;;;;;;;2.17;1.88;;;;;;;;;;5069597;28;20557;-54
2022/04/23 03:36:58;;;;;;;2.65;2.03;;;;;;;;;;5068568;28;20074;-48
2022/04/23 03:39:25;;;;;;;2.22;2.03;;;;;;;;;;5069996;28;20032;-48
2022/04/23 03:41:51;;;;;;;2.30;1.88;;;;;;;;;;5068793;28;20024;-49
2022/04/23 03:44:17;;;;;;;1.98;1.77;;;;;;;;;;5069263;28;20033;-49
2022/04/23 03:46:43;;;;;;;3.25;2.55;;;;;;;;;;5068982;28;20078;-54
2022/04/23 03:49:09;;;;;;;3.28;2.15;;;;;;;;;;5069244;28;20025;-48
2022/04/23 03:51:35;;;;;;;4.88;2.25;;;;;;;;;;5069512;28;20094;-50
2022/04/23 03:54:01;;;;;;;2.20;2.00;;;;;;;;;;5070080;28;20195;-48
2022/04/23 03:56:27;;;;;;;2.10;1.90;;;;;;;;;;5071155;28;20074;-50
2022/04/23 03:58:54;;;;;;;4.53;2.33;;;;;;;;;;5070960;28;20081;-50
2022/04/23 04:01:20;;;;;;;2.95;2.13;;;;;;;;;;5071959;28;20031;-52
2022/04/23 04:03:46;;;;;;;2.22;2.03;;;;;;;;;;5070720;28;20351;-50
2022/04/23 04:06:12;;;;;;;2.08;1.83;;;;;;;;;;5072130;28;20027;-52
2022/04/23 04:08:38;;;;;;;2.38;2.13;;;;;;;;;;5071620;28;20028;-52
2022/04/23 04:11:04;;;;;;;2.47;1.88;;;;;;;;;;5070489;28;20029;-49
2022/04/23 04:13:30;;;;;;;2.80;2.00;;;;;;;;;;5071508;28;20046;-49
2022/04/23 04:15:57;;;;;;;2.35;2.05;;;;;;;;;;5070751;28;20505;-47
2022/04/23 04:18:23;;;;;;;3.03;2.38;;;;;;;;;;5070195;28;20033;-47
2022/04/23 04:20:50;;;;;;;2.28;2.10;;;;;;;;;;5070822;28;20044;-48
2022/04/23 04:23:16;;;;;;;2.95;1.77;;;;;;;;;;5071284;28;20103;-49
2022/04/23 04:25:43;;;;;;;3.40;2.08;;;;;;;;;;5071413;28;20032;-54
2022/04/23 04:28:09;;;;;;;2.45;2.20;;;;;;;;;;5071305;28;20053;-49
2022/04/23 04:33:22;;;;;;;2.10;1.70;;;;;;;;;;5059471;28;20032;-48
2022/04/23 04:35:48;;;;;;;1.92;1.73;;;;;;;;;;5073830;28;20020;-48
2022/04/23 04:38:14;;;;;;;1.85;1.50;;;;;;;;;;5075279;28;20524;-49
2022/04/23 04:40:40;;;;;;;1.83;1.60;;;;;;;;;;5075150;28;20163;-48
2022/04/23 04:43:07;;;;;;;1.75;1.65;;;;;;;;;;5074032;28;20107;-48
2022/04/23 04:45:33;;;;;;;1.95;1.77;;;;;;;;;;5075001;28;20051;-48
2022/04/23 04:47:59;;;;;;;2.50;1.73;;;;;;;;;;5074310;28;20039;-48
2022/04/23 04:50:25;;;;;;;1.70;1.60;;;;;;;;;;5074828;28;20036;-48
2022/04/23 04:52:51;;;;;;;2.53;1.92;;;;;;;;;;5074257;28;20035;-48
2022/04/23 04:55:17;;;;;;;2.10;1.73;;;;;;;;;;5073763;28;20038;-48
2022/04/23 04:57:43;;;;;;;1.92;1.73;;;;;;;;;;5074544;28;20032;-48
2022/04/23 05:00:10;;;;;;;2.03;1.60;;;;;;;;;;5073861;28;20058;-48
2022/04/23 05:02:36;;;;;;;2.33;1.73;;;;;;;;;;5074762;28;20032;-48
2022/04/23 05:05:02;;;;;;;1.50;1.40;;;;;;;;;;5073787;28;20027;-49
2022/04/23 05:07:28;;;;;;;1.77;1.60;;;;;;;;;;5074845;28;20025;-51
2022/04/23 05:09:54;;;;;;;1.63;1.50;;;;;;;;;;5073915;28;20402;-47
2022/04/23 05:12:20;;;;;;;2.85;1.70;;;;;;;;;;5073385;28;20016;-48
2022/04/23 05:14:46;;;;;;;2.38;1.95;;;;;;;;;;5074270;28;20086;-53
2022/04/23 05:17:11;;;;;;;5.40;3.15;;;;;;;;;;5074404;28;20028;-53
2022/04/23 05:19:37;;;;;;;4.57;2.95;;;;;;;;;;5074045;28;20033;-51
2022/04/23 05:22:04;;;;;;;4.82;3.22;;;;;;;;;;5074077;28;20021;-50
2022/04/23 05:24:30;;;;;;;3.55;2.58;;;;;;;;;;5071542;28;20032;-53
2022/04/23 05:26:55;;;;;;;2.33;2.10;;;;;;;;;;5071654;28;20119;-52
2022/04/23 05:29:22;;;;;;;2.17;1.80;;;;;;;;;;5068374;28;20514;-49
2022/04/23 05:31:48;;;;;;;3.85;1.80;;;;;;;;;;5072591;28;20016;-54
2022/04/23 05:34:14;;;;;;;2.45;1.77;;;;;;;;;;5069330;28;20087;-52
2022/04/23 05:36:40;;;;;;;2.10;1.75;;;;;;;;;;5073068;28;20112;-50
2022/04/23 05:39:05;;;;;;;2.10;1.48;;;;;;;;;;5069308;28;20791;-51
2022/04/23 05:41:31;;;;;;;3.45;1.80;;;;;;;;;;5070258;28;20033;-54
2022/04/23 05:43:58;;;;;;;3.30;1.58;;;;;;;;;;5070745;28;20373;-55
2022/04/23 05:46:24;;;;;;;1.50;1.40;;;;;;;;;;5070268;28;20031;-50
2022/04/23 05:48:50;;;;;;;2.50;1.50;;;;;;;;;;5066796;28;20021;-55
2022/04/23 05:51:16;;;;;;;2.40;1.85;;;;;;;;;;5071886;28;20399;-49
2022/04/23 05:53:43;;;;;;;2.67;2.28;;;;;;;;;;5070236;28;20025;-51
2022/04/23 05:56:09;;;;;;;1.80;1.50;;;;;;;;;;5070993;28;20021;-52
2022/04/23 05:58:38;;;;;;;1.45;1.27;;;;;;;;;;5072554;28;20044;-53
2022/04/23 06:01:04;;;;;;;3.08;1.80;;;;;;;;;;5071882;28;20017;-50
2022/04/23 06:03:30;;;;;;;2.17;1.92;;;;;;;;;;5070825;28;20036;-52
2022/04/23 06:05:56;;;;;;;2.55;1.38;;;;;;;;;;5069191;28;20021;-51
2022/04/23 06:08:22;;;;;;;2.17;1.77;;;;;;;;;;5070920;28;20028;-51
2022/04/23 06:10:48;;;;;;;3.15;2.40;;;;;;;;;;5072177;28;20033;-56
2022/04/23 06:13:14;;;;;;;4.78;3.15;;;;;;;;;;5055979;28;20075;-50
2022/04/23 06:15:40;;;;;;;3.83;3.08;;;;;;;;;;5054853;28;20017;-51
2022/04/23 06:18:06;;;;;;;4.15;3.50;;;;;;;;;;5071604;28;20028;-48
2022/04/23 06:20:32;;;;;;;5.80;3.65;;;;;;;;;;5072438;28;20124;-53
2022/04/23 06:22:58;;;;;;;4.47;3.58;;;;;;;;;;5072506;28;20099;-54
2022/04/23 06:25:24;;;;;;;3.08;2.78;;;;;;;;;;5062847;28;20440;-51
2022/04/23 06:27:50;;;;;;;3.00;2.67;;;;;;;;;;5071061;28;20040;-53
2022/04/23 06:30:16;;;;;;;2.83;2.35;;;;;;;;;;5069075;28;20036;-52
2022/04/23 06:32:43;;;;;;;2.10;1.90;;;;;;;;;;5073021;28;20129;-50
2022/04/23 06:35:09;;;;;;;1.80;1.63;;;;;;;;;;5070994;28;20050;-49
2022/04/23 06:37:40;;;;;;;1.55;1.40;;;;;;;;;;5073180;28;20370;-49
2022/04/23 06:40:07;;;;;;;1.50;1.40;;;;;;;;;;5072299;28;20025;-49
2022/04/23 06:42:33;;;;;;;1.35;1.23;;;;;;;;;;5072969;28;20024;-50
2022/04/23 06:44:59;;;;;;;2.42;1.60;;;;;;;;;;5071686;28;20380;-52
2022/04/23 06:47:24;;;;;;;2.10;1.42;;;;;;;;;;5072208;28;20033;-50
2022/04/23 06:49:50;;;;;;;2.25;1.77;;;;;;;;;;5072196;28;20063;-50
2022/04/23 06:52:16;;;;;;;1.95;1.30;;;;;;;;;;5073796;28;20497;-51
2022/04/23 06:54:42;;;;;;;2.20;2.00;;;;;;;;;;5072692;28;20024;-49
2022/04/23 06:57:08;;;;;;;2.17;1.90;;;;;;;;;;5070516;28;20052;-50
2022/04/23 06:59:34;;;;;;;1.95;1.10;;;;;;;;;;5071664;28;20024;-49
2022/04/23 07:02:02;;;;;;;2.25;1.55;;;;;;;;;;5071047;28;20024;-49
2022/04/23 07:04:29;;;;;;;3.33;2.10;;;;;;;;;;5068402;28;20025;-51
2022/04/23 07:06:55;;;;;;;2.17;1.13;;;;;;;;;;5070695;28;20024;-52
2022/04/23 07:09:21;;;;;;;2.53;2.08;;;;;;;;;;5070593;28;20046;-50
2022/04/23 07:11:47;;;;;;;2.03;1.75;;;;;;;;;;5071030;28;20024;-50
2022/04/23 07:14:13;;;;;;;1.35;1.25;;;;;;;;;;5070837;28;20099;-49
2022/04/23 07:16:40;;;;;;;4.28;1.65;;;;;;;;;;5071073;28;20020;-51
2022/04/23 07:19:07;;;;;;;4.78;2.85;;;;;;;;;;5070248;28;20023;-51
2022/04/23 07:21:34;;;;;;;2.75;1.83;;;;;;;;;;5070955;28;20467;-51
2022/04/23 07:24:04;;;;;;;2.03;1.70;;;;;;;;;;5070131;28;20032;-50
2022/04/23 07:26:31;;;;;;;2.70;2.42;;;;;;;;;;5068515;28;20048;-50
2022/04/23 07:28:57;;;;;;;1.33;1.20;;;;;;;;;;5069920;28;20017;-53
2022/04/23 07:31:24;;;;;;;2.03;1.27;;;;;;;;;;5070717;28;20519;-52
2022/04/23 07:39:19;;;;;;;3.72;1.30;;;;;;;;;;5069822;28;20178;-53
2022/04/23 07:41:45;;;;;;;2.05;0.90;;;;;;;;;;5071048;28;20025;-48
2022/04/23 07:44:11;;;;;;;1.52;0.90;;;;;;;;;;5069735;28;20028;-50
2022/04/23 07:46:39;;;;;;;2.03;1.10;;;;;;;;;;5070754;28;20462;-53
2022/04/23 07:49:05;;;;;;;1.40;1.10;;;;;;;;;;5069845;28;20489;-52
2022/04/23 07:51:31;;;;;;;3.50;1.30;;;;;;;;;;5070295;28;20037;-54
2022/04/23 07:53:57;;;;;;;2.25;1.20;;;;;;;;;;5069992;28;20020;-54
2022/04/23 07:56:23;;;;;;;2.03;1.20;;;;;;;;;;5071140;28;20429;-54
2022/04/23 07:58:49;;;;;;;2.80;1.13;;;;;;;;;;5070373;28;20020;-54
2022/04/23 08:01:16;;;;;;;4.10;1.20;;;;;;;;;;5070682;28;20055;-54
2022/04/23 08:03:42;;;;;;;6.15;1.35;;;;;;;;;;5070364;28;20020;-50
2022/04/23 08:06:10;;;;;;;1.58;1.00;;;;;;;;;;5070099;28;20017;-51
2022/04/23 08:08:36;;;;;;;2.83;1.00;;;;;;;;;;5070486;28;20031;-49
2022/04/23 08:11:02;;;;;;;2.10;1.00;;;;;;;;;;5073423;28;20032;-52
2022/04/23 08:13:28;;;;;;;1.10;1.00;;;;;;;;;;5074518;28;20389;-52
2022/04/23 08:15:54;;;;;;;2.03;1.20;;;;;;;;;;5073606;28;20035;-52
2022/04/23 08:18:20;;;;;;;2.88;1.05;;;;;;;;;;5074392;28;20108;-52
2022/04/23 08:20:46;;;;;;;2.92;1.10;;;;;;;;;;5073723;28;20104;-52
2022/04/23 08:23:12;;;;;;;2.22;0.90;;;;;;;;;;5073441;28;20673;-55
2022/04/23 08:25:38;;;;;;;1.25;1.00;;;;;;;;;;5062992;28;20032;-55
2022/04/23 08:30:49;;;;;;;5.60;1.02;;;;;;;;;;5073827;28;20089;-55
2022/04/23 08:33:15;;;;;;;2.92;0.90;;;;;;;;;;5073368;28;20390;-54
2022/04/23 08:35:41;;;;;;;3.90;1.30;;;;;;;;;;5074268;28;20104;-55
2022/04/23 08:38:07;;;;;;;2.35;0.90;;;;;;;;;;5073471;28;20443;-50
2022/04/23 08:40:40;;;;;;;2.35;1.20;;;;;;;;;;5074252;28;20033;-56
2022/04/23 08:43:06;;;;;;;7.00;1.70;;;;;;;;;;5073444;28;20027;-56
2022/04/23 08:45:33;;;;;;;7.95;1.20;;;;;;;;;;5074077;28;20048;-55
2022/04/23 08:48:00;;;;;;;3.30;1.10;;;;;;;;;;5071634;28;20432;-52
2022/04/23 08:50:27;;;;;;;7.13;1.40;;;;;;;;;;5073891;28;20032;-56
2022/04/23 08:52:57;;;;;;;3.03;1.20;;;;;;;;;;5073582;28;20025;-50
2022/04/23 08:55:26;;;;;;;3.13;1.20;;;;;;;;;;5073777;28;20039;-54
2022/04/23 08:57:52;;;;;;;4.25;1.00;;;;;;;;;;5070763;28;20048;-53
2022/04/23 09:00:18;;;;;;;3.97;1.20;;;;;;;;;;5073090;28;20032;-54
2022/04/23 09:02:44;;;;;;;6.63;1.70;;;;;;;;;;5073645;28;20854;-57
2022/04/23 09:05:14;;;;;;;7.47;1.20;;;;;;;;;;5070119;28;20111;-48
2022/04/23 09:07:40;;;;;;;1.67;1.25;;;;;;;;;;5073800;28;20016;-49
2022/04/23 09:10:07;;;;;;;9.57;1.45;;;;;;;;;;5072609;28;20062;-48
2022/04/23 09:12:33;;;;;;;5.15;1.20;;;;;;;;;;5073877;28;20096;-47
2022/04/23 09:23:43;;;;;;;4.40;1.40;;;;;;;;;;5073856;28;20039;-47
2022/04/23 09:26:18;;;;;;;7.70;2.25;;;;;;;;;;5072617;28;20024;-46
2022/04/23 09:28:46;;;;;;;5.25;1.65;;;;;;;;;;5073382;28;20515;-48
2022/04/23 09:31:12;;;;;;;4.82;1.30;;;;;;;;;;5072511;28;20595;-47
2022/04/23 09:33:45;;;;;;;3.42;1.60;;;;;;;;;;5055966;28;20021;-46
2022/04/23 09:36:12;;;;;;;2.17;1.40;;;;;;;;;;5072872;28;20029;-49
2022/04/23 09:38:40;;;;;;;4.05;1.90;;;;;;;;;;5073755;28;20017;-47
2022/04/23 09:41:21;;;;;;;7.68;1.38;;;;;;;;;;5072937;28;20036;-46
2022/04/23 09:43:51;;;;;;;3.95;1.08;;;;;;;;;;5073664;28;20059;-49
2022/04/23 09:46:17;;;;;;;2.42;1.40;;;;;;;;;;5072395;28;20486;-47
2022/04/23 09:48:44;;;;;;;7.50;1.48;;;;;;;;;;5073195;28;20058;-51
2022/04/23 09:51:24;;;;;;;5.47;1.60;;;;;;;;;;5072223;28;20031;-49
2022/04/23 09:53:53;;;;;;;5.13;1.58;;;;;;;;;;5073386;28;20421;-50
2022/04/23 09:56:20;;;;;;;6.95;1.83;;;;;;;;;;5072711;28;20078;-49
2022/04/23 09:58:47;;;;;;;8.85;1.80;;;;;;;;;;5072554;28;20028;-48
2022/04/23 10:01:14;;;;;;;5.20;1.63;;;;;;;;;;5071749;28;20558;-49
2022/04/23 10:03:44;;;;;;;3.25;1.70;;;;;;;;;;5072592;28;20531;-51
2022/04/23 10:06:12;;;;;;;6.22;2.00;;;;;;;;;;5072850;28;20052;-46
2022/04/23 10:08:41;;;;;;;4.43;1.55;;;;;;;;;;5072737;28;20021;-47
2022/04/23 10:11:10;;;;;;;8.68;2.28;;;;;;;;;;5072051;28;20098;-51
2022/04/23 10:13:39;;;;;;;8.18;1.73;;;;;;;;;;5072288;28;20032;-48
2022/04/23 10:16:05;;;;;;;9.25;2.38;;;;;;;;;;5071413;28;20033;-49
2022/04/23 10:18:32;;;;;;;8.23;2.22;;;;;;;;;;5072492;28;20086;-49
2022/04/23 10:21:02;;;;;;;7.28;1.50;;;;;;;;;;5071888;28;20103;-49
2022/04/23 10:23:47;;;;;;;7.75;2.30;;;;;;;;;;5072404;28;20485;-47
2022/04/23 10:26:16;;;;;;;8.90;2.03;;;;;;;;;;5069909;28;20485;-51
2022/04/23 10:28:45;;;;;;;8.90;1.90;;;;;;;;;;5072184;28;20040;-49
2022/04/23 10:31:15;;;;;;;8.35;2.40;;;;;;;;;;5071262;28;20618;-47
2022/04/23 10:33:46;;;;;;;5.22;1.63;;;;;;;;;;5071639;28;20038;-50
2022/04/23 10:36:13;;;;;;;9.30;1.98;;;;;;;;;;5071818;28;20020;-49
2022/04/23 10:38:42;;;;;;;3.75;1.50;;;;;;;;;;5072377;28;20112;-46
2022/04/23 10:41:09;;;;;;;6.90;1.60;;;;;;;;;;5071490;28;20470;-51
2022/04/23 10:43:35;;;;;;;3.33;1.77;;;;;;;;;;5071949;28;20033;-47
2022/04/23 10:46:01;;;;;;;3.53;1.55;;;;;;;;;;5071331;28;20489;-49
2022/04/23 10:48:28;;;;;;;6.30;1.80;;;;;;;;;;5072240;28;20033;-49
2022/04/23 10:51:15;;;;;;;2.78;1.48;;;;;;;;;;5072032;28;20498;-55
2022/04/23 10:53:41;;;;;;;3.80;1.52;;;;;;;;;;5072209;28;20039;-54
2022/04/23 10:56:07;;;;;;;6.03;1.42;;;;;;;;;;5071483;28;20035;-47
2022/04/23 10:58:34;;;;;;;9.57;2.40;;;;;;;;;;5071853;28;20062;-50
2022/04/23 11:01:21;;;;;;;3.53;2.00;;;;;;;;;;5071269;28;20032;-46
2022/04/23 11:03:51;;;;;;;6.00;1.60;;;;;;;;;;5057738;28;20063;-48
2022/04/23 11:12:22;;;;;;;2.72;1.40;;;;;;;;;;5070877;28;20143;-46
2022/04/23 11:14:52;;;;;;;3.30;1.33;;;;;;;;;;5071578;28;20028;-46
2022/04/23 11:17:44;;;;;;;4.03;1.65;;;;;;;;;;5069438;28;20092;-46
2022/04/23 11:20:13;;;;;;;1.90;1.10;;;;;;;;;;5068800;28;20043;-50
2022/04/23 11:22:39;;;;;;;4.53;1.67;;;;;;;;;;5051793;28;20028;-49
2022/04/23 11:25:06;;;;;;;4.03;1.75;;;;;;;;;;5067188;28;20035;-47
2022/04/23 11:27:36;;;;;;;2.53;1.25;;;;;;;;;;5071056;28;20053;-48
2022/04/23 11:30:02;;;;;;;4.30;1.50;;;;;;;;;;5069316;28;20420;-49
2022/04/23 11:32:29;;;;;;;2.45;1.30;;;;;;;;;;5071152;28;20438;-48
2022/04/23 11:34:58;;;;;;;4.10;1.50;;;;;;;;;;5070288;28;20516;-55
2022/04/23 11:37:28;;;;;;;3.35;1.70;;;;;;;;;;5071794;28;20763;-49
2022/04/23 11:40:03;;;;;;;2.47;1.20;;;;;;;;;;5070398;28;20036;-55
2022/04/23 11:42:42;;;;;;;2.25;1.40;;;;;;;;;;5071605;28;20021;-46
2022/04/23 11:45:10;;;;;;;2.58;1.48;;;;;;;;;;5068947;28;20103;-49
2022/04/23 11:47:36;;;;;;;3.95;1.88;;;;;;;;;;5070920;28;20029;-49
2022/04/23 11:50:08;;;;;;;7.90;1.95;;;;;;;;;;5070073;28;20079;-49
2022/04/23 11:52:34;;;;;;;6.72;1.65;;;;;;;;;;5071498;28;20085;-49
2022/04/23 11:55:01;;;;;;;4.57;1.73;;;;;;;;;;5070244;28;20032;-51
2022/04/23 11:57:27;;;;;;;7.45;1.90;;;;;;;;;;5071032;28;20056;-48
2022/04/23 11:59:59;;;;;;;6.00;2.10;;;;;;;;;;5070608;28;20028;-50
2022/04/23 12:02:26;;;;;;;7.30;2.30;;;;;;;;;;5070975;28;20430;-51
2022/04/23 12:05:03;;;;;;;14.93;4.28;;;;;;;;;;5070110;28;20021;-57
2022/04/23 12:07:32;;;;;;;13.27;3.50;;;;;;;;;;5071189;28;20154;-53
2022/04/23 12:09:59;;;;;;;5.38;2.80;;;;;;;;;;5070128;28;20032;-52
2022/04/23 12:12:29;;;;;;;9.05;3.55;;;;;;;;;;5071336;28;20025;-48
2022/04/23 12:14:55;;;;;;;7.28;2.60;;;;;;;;;;5070277;28;20092;-56
2022/04/23 12:17:21;;;;;;;8.73;2.70;;;;;;;;;;5070761;28;20470;-54
2022/04/23 12:19:48;;;;;;;7.75;3.35;;;;;;;;;;5070844;28;20051;-48
2022/04/23 12:22:33;;;;;;;6.63;2.75;;;;;;;;;;5070285;28;20586;-49
2022/04/23 12:25:08;;;;;;;6.05;2.80;;;;;;;;;;5069679;28;20036;-48
2022/04/23 12:27:53;;;;;;;7.00;3.15;;;;;;;;;;5070256;28;20053;-49
2022/04/23 12:41:39;;;;;;;6.65;2.60;;;;;;;;;;5070691;28;20032;-48
2022/04/23 12:44:18;;;;;;;4.93;2.67;;;;;;;;;;5070013;28;20031;-48
2022/04/23 12:46:54;;;;;;;7.13;2.53;;;;;;;;;;5070213;28;20543;-49
2022/04/23 12:49:22;;;;;;;6.22;2.78;;;;;;;;;;5069448;28;20025;-54
2022/04/23 12:51:54;;;;;;;5.20;2.60;;;;;;;;;;5053830;28;20028;-51
2022/04/23 12:54:24;;;;;;;3.90;2.40;;;;;;;;;;5070511;28;20024;-49
2022/04/23 12:56:51;;;;;;;9.02;2.58;;;;;;;;;;5072800;28;20031;-53
2022/04/23 12:59:17;;;;;;;7.70;2.63;;;;;;;;;;5073226;28;20052;-49
2022/04/23 13:01:43;;;;;;;5.53;2.28;;;;;;;;;;5074238;28;20039;-50
2022/04/23 13:04:11;;;;;;;5.57;2.20;;;;;;;;;;5073190;28;20020;-52
2022/04/23 13:09:22;;;;;;;6.95;2.10;;;;;;;;;;5071822;28;20031;-48
2022/04/23 13:11:49;;;;;;;4.75;2.38;;;;;;;;;;5073885;28;20033;-53
2022/04/23 13:14:16;;;;;;;4.13;2.20;;;;;;;;;;5069994;28;20590;-51
2022/04/23 13:16:44;;;;;;;8.13;2.72;;;;;;;;;;5073887;28;20021;-51
2022/04/23 13:19:10;;;;;;;7.00;2.83;;;;;;;;;;5072810;28;20532;-48
2022/04/23 13:21:36;;;;;;;9.73;2.53;;;;;;;;;;5073774;28;20111;-50
2022/04/23 13:24:03;;;;;;;6.18;2.35;;;;;;;;;;5073126;28;20373;-53
2022/04/23 13:26:29;;;;;;;5.63;2.20;;;;;;;;;;5072984;28;20113;-48
2022/04/23 13:28:56;;;;;;;6.88;2.40;;;;;;;;;;5073109;28;20052;-56
2022/04/23 13:31:22;;;;;;;13.40;2.53;;;;;;;;;;5070995;28;20051;-49
2022/04/23 13:33:48;;;;;;;12.07;2.70;;;;;;;;;;5073508;28;20059;-50
2022/04/23 13:36:14;;;;;;;8.88;2.75;;;;;;;;;;5072208;28;20032;-47
2022/04/23 13:38:40;;;;;;;9.75;2.70;;;;;;;;;;5073871;28;20024;-47
2022/04/23 13:41:10;;;;;;;8.77;3.22;;;;;;;;;;5073923;28;20077;-49
2022/04/23 13:43:36;;;;;;;11.77;3.72;;;;;;;;;;5073562;28;20020;-50
2022/04/23 13:46:02;;;;;;;7.57;2.70;;;;;;;;;;5072183;28;20479;-51
2022/04/23 13:48:28;;;;;;;9.68;2.63;;;;;;;;;;5073204;28;20036;-47
2022/04/23 13:50:55;;;;;;;7.13;3.35;;;;;;;;;;5072186;28;20040;-55
2022/04/23 13:53:21;;;;;;;12.15;3.00;;;;;;;;;;5072672;28;20029;-49
2022/04/23 13:55:47;;;;;;;11.05;2.50;;;;;;;;;;5072860;28;20027;-47
2022/04/23 13:58:16;;;;;;;9.30;4.03;;;;;;;;;;5071982;28;20044;-46
2022/04/23 14:00:42;;;;;;;9.60;3.55;;;;;;;;;;5072495;28;20029;-47
2022/04/23 14:11:22;;;;;;;11.13;3.25;;;;;;;;;;5072575;28;20060;-47
2022/04/23 14:13:48;;;;;;;7.10;2.80;;;;;;;;;;5072356;28;20473;-48
2022/04/23 14:16:15;;;;;;;9.88;3.35;;;;;;;;;;5071946;28;20043;-48
2022/04/23 14:18:41;;;;;;;6.88;2.90;;;;;;;;;;5072693;28;20346;-48
2022/04/23 14:21:07;;;;;;;11.80;3.22;;;;;;;;;;5071123;28;20035;-48
2022/04/23 14:23:33;;;;;;;9.02;3.92;;;;;;;;;;5072847;28;20028;-47
2022/04/23 14:25:59;;;;;;;6.38;3.78;;;;;;;;;;5072059;28;20028;-51
2022/04/23 14:28:25;;;;;;;11.48;2.97;;;;;;;;;;5070091;28;20036;-49
2022/04/23 14:30:52;;;;;;;12.00;2.92;;;;;;;;;;5071850;28;20029;-50
2022/04/23 14:33:18;;;;;;;16.77;4.53;;;;;;;;;;5070438;28;20632;-48
2022/04/23 14:35:44;;;;;;;10.82;3.55;;;;;;;;;;5071619;28;20028;-47
2022/04/23 14:38:10;;;;;;;6.43;2.67;;;;;;;;;;5071088;28;20028;-47
2022/04/23 14:40:37;;;;;;;9.43;3.05;;;;;;;;;;5071594;28;20070;-51
2022/04/23 14:43:05;;;;;;;7.40;3.10;;;;;;;;;;5071176;28;20012;-48
2022/04/23 14:45:31;;;;;;;5.18;2.90;;;;;;;;;;5072486;28;20039;-49
2022/04/23 14:47:57;;;;;;;6.53;2.83;;;;;;;;;;5071595;28;20024;-54
2022/04/23 14:50:24;;;;;;;5.72;2.80;;;;;;;;;;5071894;28;20048;-47
2022/04/23 14:55:35;;;;;;;6.70;3.53;;;;;;;;;;5069619;28;20027;-48
2022/04/23 14:58:01;;;;;;;7.32;2.75;;;;;;;;;;5070185;28;20028;-55
2022/04/23 15:00:27;;;;;;;12.93;3.10;;;;;;;;;;5071798;28;20029;-49
2022/04/23 15:02:54;;;;;;;4.82;2.25;;;;;;;;;;5072321;28;20039;-48
2022/04/23 15:05:20;;;;;;;6.50;2.15;;;;;;;;;;5071873;28;20081;-47
2022/04/23 15:07:46;;;;;;;5.65;2.10;;;;;;;;;;5072186;28;20036;-49
2022/04/23 15:10:12;;;;;;;7.68;2.60;;;;;;;;;;5070185;28;20032;-51
2022/04/23 15:12:38;;;;;;;5.18;3.00;;;;;;;;;;5059578;28;20021;-48
2022/04/23 15:15:06;;;;;;;3.88;2.50;;;;;;;;;;5071533;28;20381;-48
2022/04/23 15:17:32;;;;;;;7.90;2.50;;;;;;;;;;5071960;28;20115;-47
2022/04/23 15:19:58;;;;;;;12.45;2.53;;;;;;;;;;5071323;28;20021;-55
2022/04/23 15:22:24;;;;;;;4.95;2.55;;;;;;;;;;5071482;28;20032;-48
2022/04/23 15:24:51;;;;;;;6.05;2.58;;;;;;;;;;5073483;28;20107;-48
2022/04/23 15:27:17;;;;;;;5.53;2.78;;;;;;;;;;5071013;28;20061;-47
2022/04/23 15:29:43;;;;;;;5.57;2.63;;;;;;;;;;5072119;28;20061;-48
2022/04/23 15:32:09;;;;;;;4.25;2.10;;;;;;;;;;5072134;28;20112;-50
2022/04/23 15:34:38;;;;;;;5.97;2.53;;;;;;;;;;5071519;28;20099;-51